Relevés horaires Beauvechain (Belgique)


Relevés horaires à Beauvechain - Vendredi 22 Janv. 2021
Heure UTC1 Température [°C] Vent [km/h] Hum. [%] Pres.4 [hPa] Visi. [Km] Nébu. [octa] Préc.5 [mm] Cond.
2m. Res. Ros. Dir.2 Vit. Moy. Raf.3
23:00 2.4 0.9 0.3 SSO 5.6 -- 9.3 86 997.6(0.1/3h) 20 -- -- --
22:00 2.5 2.5 0.2 SSO 3.7 -- 9.3 85 997.3(0.0/3h) 20 -- -- --
21:00 2.7 0.6 0.5 S 7.4 -- 9.3 85 997.6(0.8/3h) 20 -- -- --
20:00 2.9 1.5 0.3 S 5.6 -- 7.4 83 997.5(1.0/3h) 20 -- -- --
19:00 2.4 0.3 0.1 SSO 7.4 -- 7.4 85 997.3(1.2/3h) 20 -- -- --
18:00 3.0 1.6 0.1 SSO 5.6 -- 11.1 81 996.8(1.0/3h) 20 -- -- --
17:00 3.3 1.9 0.2 SSO 5.6 -- 5.6 80 996.3(0.7/3h) 20 -- -- --
16:00 4.6 4.6 0.2 SO 3.7 -- 7.4 73 995.9(0.5/3h) 20 5/8 -- --
15:00 5.7 4.7 0.1 OSO 5.6 -- 11.1 67 995.7(0.9/3h) 20 5/8 -- --
14:00 6.1 4.6 1.1 OSO 7.4 -- 11.1 70 995.4(0.9/3h) 20 5/8 -- --
13:00 6.5 5 2.5 OSO 7.4 -- 11.1 76 995.2(1.2/3h) 20 5/8 -- --
12:00 5.4 3.8 2.5 OSO 7.4 -- 13.0 82 994.8(1.6/3h) 20 5/8 -- --
11:00 5.0 2.8 2.9 SO 9.3 -- 13.0 86 994.5(2.0/3h) 20 6/8 -- --
10:00 4.2 1.9 3.0 SO 9.3 -- 11.1 92 994.1(2.5/3h) 20 7/8 -- --
09:00 3.7 1.8 2.7 SO 7.4 -- 11.1 93 993.3(2.2/3h) 20 7/8 -- --
08:00 3.3 1.3 2.4 SO 7.4 -- 9.3 94 992.5(1.6/3h) 20 7/8 -- --
07:00 3.3 1.9 2.3 SO 5.6 -- 11.1 93 991.6(0.9/3h) 20 7/8 -- --
06:00 3.4 1.4 2.3 SO 7.4 -- 22.2 92 990.9(1.1/3h) 20 -- 4/12h
NA
05:00 3.5 1 2.4 SSO 9.3 -- 11.1 92 990.8(1.7/3h) 20 -- -- --
04:00 3.4 1.4 2.4 SO 7.4 -- 14.8 93 990.6(2.7/3h) 20 -- -- --
03:00 3.2 1.2 2.3 SO 7.4 -- 22.2 94 989.8(4.4/3h) 20 -- -- NA
02:00 3.3 1.9 2.3 SO 5.6 -- 18.5 93 989(4.9/3h) 20 -- -- NA
01:00 3.5 0.6 2.4 ONO 11.1 -- 22.2 92 987.8(3.6/3h) 19 -- -- Il y a de la pluie faible et continue à la station au moment de l'observation
00:00 6.3 3.4 5.3 O 14.8 -- 38.9 93 985.1(0.7/3h) 13 -- 4/6h
Il y a de la pluie faible et continue à la station au moment de l'observation

1 Coordinated Universal Time. Actuellement il est 20:00 locale et 18:00 UTC.

2 Le vent souffle depuis la direction indiquée vers la direction oposée.

3 Les rafales max. sont disponible 40 min après l'heure du relevé.

4 Pour les stations d'altitude (plus de 600m) le géopotentiel du niveau le plus proche de la pression obligatoire est indiqué.

5 Les stations disposant d'un diffuseur peuvent indiquer "trace". Cela signifie que des précipitations ont touchés le sol mais que la quantité est inférieure à 0.1 mm.

Récapitulatif de la journée
Température [°C] Vent [km/h] Ensoleillement4 [h] Precipitations totale5 [mm] Pression [Hpa]
Min1 Max.2 Moy.3 Max. Min Max.
3.2 6.6 0 38.9 0 h 0 min 0 985.1 997.6

1 Température minimale relevée entre 18:00 UTC la veille et 18:00 UTC le jour donné.

2 Température maximale relevée entre 06:00 UTC le jour donné et 06:00 UTC le lendemain.

3 Vent moyen de la journée basé sur les relevés horaires.

4 Ensoleillement en heures relevé entre 06:00 UTC la veille et 06:00 UTC le jour donné.

5 Précipitations totales tombées entre 06:00 UTC la jour donné et 06:00 UTC le lendemain.

Graphiques horaires